Time;durP1;ratioP1;P1;durP2;ratioP2;P2;SDS_P1;SDS_P2;PMS_P1;PMS_P2;Temp;Humidity;BMP_temperature;BMP_pressure;BME280_temperature;BME280_humidity;BME280_pressure;Samples;Min_cycle;Max_cycle;Signal;HPM_P1;HPM_P2
2023/03/31 00:02:21;;;;;;;73.72;50.28;;;16.60;77.00;;;;;;4993639;28;90519;-78
2023/03/31 00:04:58;;;;;;;74.20;50.15;;;16.60;77.20;;;;;;4994629;28;90165;-76
2023/03/31 00:07:24;;;;;;;73.80;50.35;;;16.60;77.10;;;;;;4988554;28;95499;-76
2023/03/31 00:09:53;;;;;;;74.82;50.35;;;16.50;77.00;;;;;;4993796;28;90034;-80
2023/03/31 00:12:20;;;;;;;73.43;50.03;;;16.60;76.90;;;;;;4973056;28;92003;-76
2023/03/31 00:14:46;;;;;;;75.13;50.10;;;16.50;77.00;;;;;;4980339;28;89967;-79
2023/03/31 00:17:12;;;;;;;74.32;50.45;;;16.60;76.90;;;;;;4980148;28;90374;-78
2023/03/31 00:19:40;;;;;;;72.78;50.15;;;16.50;77.30;;;;;;4975450;28;91148;-77
2023/03/31 00:22:06;;;;;;;72.53;50.05;;;16.50;77.30;;;;;;4979481;28;91084;-77
2023/03/31 00:24:33;;;;;;;74.70;50.08;;;16.50;77.30;;;;;;4991879;28;90412;-77
2023/03/31 00:27:00;;;;;;;73.65;50.13;;;16.50;77.70;;;;;;4990015;28;90543;-76
2023/03/31 00:29:25;;;;;;;74.97;50.47;;;16.50;77.80;;;;;;4998233;28;90940;-78
2023/03/31 00:31:52;;;;;;;74.00;50.03;;;16.40;77.60;;;;;;4995354;28;89320;-79
2023/03/31 00:34:17;;;;;;;73.60;50.30;;;16.40;77.60;;;;;;4992229;28;90417;-75
2023/03/31 00:36:46;;;;;;;75.47;50.05;;;16.40;77.60;;;;;;4995059;28;90816;-78
2023/03/31 00:39:17;;;;;;;73.60;50.25;;;16.40;77.80;;;;;;4995844;28;89325;-77
2023/03/31 00:41:43;;;;;;;73.90;50.20;;;16.40;77.90;;;;;;5009845;27;89793;-78
2023/03/31 00:44:11;;;;;;;73.38;50.10;;;16.40;77.80;;;;;;4995597;28;88552;-79
2023/03/31 00:46:46;;;;;;;72.75;49.80;;;16.30;77.70;;;;;;4992841;28;90123;-76
2023/03/31 00:49:36;;;;;;;74.05;49.97;;;16.40;77.90;;;;;;4993252;28;91610;-78
2023/03/31 00:52:12;;;;;;;73.05;49.65;;;16.30;78.10;;;;;;4991560;28;90118;-76
2023/03/31 00:54:41;;;;;;;73.40;50.35;;;16.30;78.10;;;;;;4998581;28;89634;-78
2023/03/31 00:57:08;;;;;;;74.30;49.75;;;16.30;77.90;;;;;;4995320;28;90650;-79
2023/03/31 00:59:39;;;;;;;73.85;50.25;;;16.30;78.10;;;;;;4995863;28;93792;-80
2023/03/31 01:02:06;;;;;;;72.68;49.72;;;16.30;78.10;;;;;;4985984;28;89311;-76
2023/03/31 01:04:38;;;;;;;73.65;50.03;;;16.30;78.20;;;;;;4990643;28;89430;-79
2023/03/31 01:07:19;;;;;;;74.18;50.13;;;16.30;78.30;;;;;;4995100;28;91322;-75
2023/03/31 01:09:46;;;;;;;73.22;50.15;;;16.30;78.30;;;;;;4998261;28;91096;-79
2023/03/31 01:12:14;;;;;;;74.75;50.33;;;16.30;78.00;;;;;;4990396;28;90360;-78
2023/03/31 01:14:40;;;;;;;72.80;49.80;;;16.30;78.20;;;;;;4997284;28;89139;-81
2023/03/31 01:17:08;;;;;;;74.05;49.72;;;16.20;78.20;;;;;;4992475;28;91126;-78
2023/03/31 01:19:53;;;;;;;72.80;49.83;;;16.20;78.20;;;;;;4995774;28;92549;-79
2023/03/31 01:22:37;;;;;;;73.70;49.88;;;16.20;78.20;;;;;;4992552;28;89469;-79
2023/03/31 01:25:37;;;;;;;73.45;49.70;;;16.20;78.30;;;;;;4997492;28;89369;-78
2023/03/31 01:28:25;;;;;;;73.88;49.80;;;16.20;78.10;;;;;;4995194;28;89642;-78
2023/03/31 01:31:11;;;;;;;72.03;49.58;;;16.20;78.20;;;;;;4997507;28;89600;-79
2023/03/31 01:33:37;;;;;;;72.80;49.65;;;16.20;79.10;;;;;;4995752;28;89323;-80
2023/03/31 01:36:17;;;;;;;73.95;49.83;;;16.20;78.40;;;;;;4991502;28;89317;-76
2023/03/31 01:39:13;;;;;;;72.00;49.78;;;16.20;78.40;;;;;;4998470;28;90094;-77
2023/03/31 01:41:47;;;;;;;72.80;49.85;;;16.20;78.40;;;;;;4995557;28;89899;-76
2023/03/31 01:44:50;;;;;;;71.90;49.42;;;16.10;78.20;;;;;;4993937;28;91134;-78
2023/03/31 01:47:31;;;;;;;72.78;49.83;;;16.20;78.40;;;;;;4986826;28;89956;-78
2023/03/31 01:50:27;;;;;;;71.30;49.47;;;16.10;78.30;;;;;;4998804;28;91774;-79
2023/03/31 01:52:58;;;;;;;72.03;49.80;;;16.10;78.20;;;;;;4994297;28;89577;-78
2023/03/31 01:55:34;;;;;;;72.65;50.15;;;16.10;78.30;;;;;;4994648;28;89851;-79
2023/03/31 01:58:07;;;;;;;72.32;49.95;;;16.10;78.20;;;;;;4998506;28;90677;-76
2023/03/31 02:00:39;;;;;;;71.90;49.90;;;16.10;78.30;;;;;;4991466;28;89539;-77
2023/03/31 02:03:28;;;;;;;72.57;50.00;;;16.10;78.30;;;;;;4984397;28;91182;-77
2023/03/31 02:05:57;;;;;;;72.18;49.95;;;16.10;78.40;;;;;;4995905;28;89574;-78
2023/03/31 02:08:30;;;;;;;72.55;50.03;;;16.00;78.10;;;;;;4994810;28;89697;-75
2023/03/31 02:10:57;;;;;;;71.93;49.53;;;16.00;78.30;;;;;;4993400;28;90992;-75
2023/03/31 02:13:26;;;;;;;74.40;49.78;;;16.10;78.20;;;;;;4992185;28;89934;-75
2023/03/31 02:15:56;;;;;;;72.75;49.50;;;16.00;78.30;;;;;;5001291;28;89371;-80
2023/03/31 02:18:26;;;;;;;70.93;49.58;;;16.00;78.20;;;;;;4993708;28;90133;-79
2023/03/31 02:20:56;;;;;;;70.40;49.28;;;16.00;78.20;;;;;;4994633;28;90898;-79
2023/03/31 02:23:28;;;;;;;71.68;49.45;;;15.90;77.90;;;;;;4993157;28;89748;-78
2023/03/31 02:26:11;;;;;;;72.88;49.75;;;15.90;78.30;;;;;;4988079;28;90063;-79
2023/03/31 02:28:37;;;;;;;71.28;49.38;;;15.90;78.20;;;;;;4998673;28;89571;-80
2023/03/31 02:31:09;;;;;;;72.90;49.90;;;15.90;78.20;;;;;;4997947;28;94518;-79
2023/03/31 02:33:34;;;;;;;71.25;49.42;;;15.90;78.20;;;;;;4994386;28;89520;-77
2023/03/31 02:36:01;;;;;;;70.95;49.60;;;15.90;78.20;;;;;;4997325;28;94606;-77
2023/03/31 02:38:30;;;;;;;71.40;49.53;;;15.90;78.40;;;;;;4993867;28;89531;-74
2023/03/31 02:40:56;;;;;;;71.07;49.70;;;15.90;78.50;;;;;;4988984;28;91523;-78
2023/03/31 02:43:21;;;;;;;71.50;49.53;;;15.90;78.40;;;;;;4991513;28;90637;-77
2023/03/31 02:45:50;;;;;;;70.68;49.65;;;15.90;78.60;;;;;;4998866;28;89519;-79
2023/03/31 02:48:20;;;;;;;71.90;49.72;;;15.80;78.10;;;;;;4995585;28;88756;-78
2023/03/31 02:51:07;;;;;;;72.32;49.92;;;15.90;78.50;;;;;;4996972;28;91081;-76
2023/03/31 02:53:54;;;;;;;71.03;49.63;;;15.80;78.60;;;;;;4991653;28;89153;-79
2023/03/31 02:56:35;;;;;;;70.70;49.55;;;15.80;78.40;;;;;;4991777;28;91622;-81
2023/03/31 02:59:20;;;;;;;70.85;49.38;;;15.80;79.10;;;;;;4993824;28;90484;-76
2023/03/31 03:02:10;;;;;;;70.93;49.25;;;15.80;78.40;;;;;;4995873;28;90819;-81
2023/03/31 03:05:02;;;;;;;73.05;49.40;;;15.80;78.30;;;;;;4991724;28;93069;-76
2023/03/31 03:07:41;;;;;;;73.35;49.45;;;15.80;78.70;;;;;;4992915;28;89952;-76
2023/03/31 03:10:26;;;;;;;72.57;49.85;;;15.70;78.90;;;;;;4991006;28;90936;-81
2023/03/31 03:13:11;;;;;;;71.00;49.55;;;15.80;78.70;;;;;;4992242;28;90246;-81
2023/03/31 03:15:45;;;;;;;69.88;49.42;;;15.80;78.80;;;;;;4996989;28;90277;-76
2023/03/31 03:18:11;;;;;;;71.68;49.63;;;15.80;78.60;;;;;;4992796;28;90143;-75
2023/03/31 03:20:39;;;;;;;70.15;49.13;;;15.80;79.00;;;;;;4997070;28;88721;-80
2023/03/31 03:23:05;;;;;;;70.72;49.33;;;15.80;78.90;;;;;;4996161;28;94244;-78
2023/03/31 03:25:30;;;;;;;70.43;49.30;;;15.70;78.90;;;;;;4996533;28;91573;-77
2023/03/31 03:27:56;;;;;;;70.88;49.30;;;15.70;78.60;;;;;;4993662;28;90857;-80
2023/03/31 03:30:21;;;;;;;71.32;49.25;;;15.80;78.90;;;;;;4993888;28;89538;-79
2023/03/31 03:32:47;;;;;;;69.55;49.30;;;15.70;78.80;;;;;;4994106;28;90134;-79
2023/03/31 03:35:13;;;;;;;69.47;48.92;;;15.70;78.60;;;;;;4995279;28;90129;-76
2023/03/31 03:37:39;;;;;;;70.72;49.15;;;15.70;78.90;;;;;;4992250;28;89331;-77
2023/03/31 03:40:05;;;;;;;71.68;49.58;;;15.70;78.90;;;;;;5000967;28;89831;-78
2023/03/31 03:42:32;;;;;;;71.40;49.33;;;15.70;78.90;;;;;;4993508;28;90125;-80
2023/03/31 03:44:57;;;;;;;71.60;49.30;;;15.70;78.90;;;;;;4996136;28;88623;-79
2023/03/31 03:47:23;;;;;;;71.40;49.25;;;15.70;78.90;;;;;;4985901;28;89470;-76
2023/03/31 03:49:49;;;;;;;70.50;49.45;;;15.70;78.90;;;;;;4984880;28;90115;-76
2023/03/31 03:52:15;;;;;;;69.85;49.00;;;15.70;78.90;;;;;;4993198;28;90809;-78
2023/03/31 03:54:41;;;;;;;70.72;49.65;;;15.70;78.90;;;;;;4998504;28;89643;-77
2023/03/31 03:57:07;;;;;;;71.07;49.25;;;15.70;78.80;;;;;;4992694;28;89368;-75
2023/03/31 03:59:32;;;;;;;71.38;49.53;;;15.70;78.80;;;;;;4994545;28;90357;-76
2023/03/31 04:01:58;;;;;;;70.30;49.35;;;15.70;79.00;;;;;;4981069;28;90681;-79
2023/03/31 04:04:24;;;;;;;70.35;49.50;;;15.70;78.90;;;;;;4993116;28;89480;-79
2023/03/31 04:06:50;;;;;;;69.38;49.10;;;15.70;79.00;;;;;;4986778;28;89870;-75
2023/03/31 04:09:15;;;;;;;73.38;49.53;;;15.60;78.90;;;;;;4992224;28;90998;-77
2023/03/31 04:11:41;;;;;;;69.63;49.38;;;15.60;79.10;;;;;;4995310;28;89515;-82
2023/03/31 04:14:07;;;;;;;69.65;49.05;;;15.70;79.00;;;;;;4996965;28;90247;-76
2023/03/31 04:16:33;;;;;;;69.80;49.33;;;15.70;78.90;;;;;;5001500;28;90153;-77
2023/03/31 04:19:02;;;;;;;69.75;49.22;;;15.60;78.80;;;;;;4992854;28;89492;-81
2023/03/31 04:21:29;;;;;;;70.25;49.13;;;15.70;78.80;;;;;;4990600;28;89926;-76
2023/03/31 04:24:00;;;;;;;70.80;49.13;;;15.70;78.90;;;;;;4997998;28;89496;-82
2023/03/31 04:26:37;;;;;;;70.63;49.40;;;15.60;78.80;;;;;;4991763;28;89716;-79
2023/03/31 04:29:04;;;;;;;70.10;48.95;;;15.60;78.80;;;;;;4985274;28;90168;-78
2023/03/31 04:31:29;;;;;;;69.78;49.20;;;15.60;78.90;;;;;;4998607;28;90083;-79
2023/03/31 04:33:59;;;;;;;70.53;49.53;;;15.60;79.00;;;;;;5000978;28;91614;-75
2023/03/31 04:36:25;;;;;;;71.28;49.25;;;15.70;78.90;;;;;;4993615;28;91618;-77
2023/03/31 04:38:53;;;;;;;71.40;49.40;;;15.70;78.90;;;;;;4995031;28;90158;-83
2023/03/31 04:41:22;;;;;;;71.47;49.42;;;15.70;78.80;;;;;;4998840;28;91130;-77
2023/03/31 04:43:48;;;;;;;70.65;49.38;;;15.70;78.90;;;;;;5011150;27;91777;-78
2023/03/31 04:46:14;;;;;;;71.05;49.28;;;15.60;78.80;;;;;;4999433;28;89453;-79
2023/03/31 04:48:40;;;;;;;69.93;49.40;;;15.60;79.20;;;;;;4993238;28;89614;-79
2023/03/31 04:51:07;;;;;;;70.40;49.50;;;15.70;79.20;;;;;;4979039;28;94351;-76
2023/03/31 04:53:33;;;;;;;73.97;49.60;;;15.60;79.30;;;;;;4982390;28;90312;-78
2023/03/31 04:55:58;;;;;;;70.90;49.42;;;15.60;79.10;;;;;;4991963;28;89882;-73
2023/03/31 04:58:24;;;;;;;70.00;49.30;;;15.70;79.30;;;;;;4997923;28;88627;-83
2023/03/31 05:00:51;;;;;;;70.70;49.35;;;15.60;79.30;;;;;;4994900;28;90239;-79
2023/03/31 05:03:18;;;;;;;71.82;49.70;;;15.60;79.40;;;;;;4996172;28;89399;-80
2023/03/31 05:05:43;;;;;;;73.57;49.03;;;15.60;79.30;;;;;;4994680;28;90532;-76
2023/03/31 05:08:09;;;;;;;74.55;49.13;;;15.60;79.30;;;;;;4991969;28;89345;-76
2023/03/31 05:10:35;;;;;;;70.28;49.22;;;15.60;79.40;;;;;;5001094;28;89933;-74
2023/03/31 05:13:00;;;;;;;71.53;49.35;;;15.60;79.50;;;;;;4996821;28;89708;-76
2023/03/31 05:15:26;;;;;;;72.13;49.38;;;15.70;79.60;;;;;;4997801;28;89498;-77
2023/03/31 05:17:52;;;;;;;72.13;49.55;;;15.60;79.40;;;;;;4997782;28;89050;-79
2023/03/31 05:20:19;;;;;;;70.90;49.35;;;15.60;80.20;;;;;;4998755;28;89945;-77
2023/03/31 05:22:45;;;;;;;71.43;49.63;;;15.60;79.50;;;;;;4999346;28;89517;-78
2023/03/31 05:25:17;;;;;;;71.85;49.78;;;15.70;79.80;;;;;;4995072;28;90304;-76
2023/03/31 05:27:47;;;;;;;73.78;49.47;;;15.60;79.40;;;;;;4991103;28;89500;-77
2023/03/31 05:30:16;;;;;;;73.53;49.92;;;15.60;79.60;;;;;;4986547;28;91314;-78
2023/03/31 05:32:43;;;;;;;71.57;49.65;;;15.60;79.90;;;;;;4998468;28;89483;-79
2023/03/31 05:35:09;;;;;;;73.28;49.67;;;15.60;80.00;;;;;;4996104;28;90074;-77
2023/03/31 05:37:35;;;;;;;76.50;50.28;;;15.60;80.10;;;;;;5005204;28;89576;-78
2023/03/31 05:40:03;;;;;;;75.63;50.22;;;15.70;80.20;;;;;;5012982;27;90813;-77
2023/03/31 05:42:29;;;;;;;74.53;49.95;;;15.70;80.30;;;;;;4998003;28;89026;-78
2023/03/31 05:44:56;;;;;;;72.57;49.90;;;15.70;80.00;;;;;;4998776;28;89302;-79
2023/03/31 05:47:22;;;;;;;74.13;49.72;;;15.60;79.90;;;;;;4998665;28;88125;-78
2023/03/31 05:49:47;;;;;;;73.50;49.85;;;15.60;80.20;;;;;;5001103;28;89221;-77
2023/03/31 05:52:13;;;;;;;76.47;50.15;;;15.60;79.90;;;;;;4998969;28;89622;-79
2023/03/31 05:54:39;;;;;;;78.20;49.78;;;15.60;80.20;;;;;;5001664;28;90424;-78
2023/03/31 05:57:05;;;;;;;73.13;50.10;;;15.60;80.00;;;;;;5002368;28;89397;-78
2023/03/31 05:59:31;;;;;;;73.15;50.00;;;15.60;80.20;;;;;;5008906;28;90240;-80
2023/03/31 06:01:57;;;;;;;75.18;50.30;;;15.60;79.90;;;;;;4995344;28;89002;-75
2023/03/31 06:04:23;;;;;;;73.43;49.90;;;15.60;79.90;;;;;;5003436;28;89386;-78
2023/03/31 06:06:49;;;;;;;76.75;50.22;;;15.60;79.70;;;;;;5000008;28;88772;-78
2023/03/31 06:09:16;;;;;;;74.60;50.13;;;15.60;79.70;;;;;;4991468;28;89559;-77
2023/03/31 06:11:42;;;;;;;77.28;50.20;;;15.60;79.60;;;;;;5001440;28;88673;-76
2023/03/31 06:14:07;;;;;;;74.30;49.95;;;15.60;79.80;;;;;;4996791;28;89512;-77
2023/03/31 06:16:33;;;;;;;72.78;49.63;;;15.60;79.40;;;;;;5001625;28;94556;-74
2023/03/31 06:18:59;;;;;;;72.78;49.97;;;15.60;79.30;;;;;;4997153;28;90783;-77
2023/03/31 06:21:25;;;;;;;76.63;50.25;;;15.60;79.40;;;;;;4996944;28;89925;-76
2023/03/31 06:23:54;;;;;;;74.50;49.97;;;15.60;79.40;;;;;;5000193;28;90105;-73
2023/03/31 06:26:20;;;;;;;75.35;50.08;;;15.60;79.30;;;;;;5001947;28;89967;-77
2023/03/31 06:28:46;;;;;;;73.20;49.70;;;15.60;78.80;;;;;;5001667;28;89053;-75
2023/03/31 06:31:15;;;;;;;74.65;50.08;;;15.70;79.10;;;;;;4996755;28;89465;-77
2023/03/31 06:33:42;;;;;;;73.60;49.95;;;15.60;78.80;;;;;;4996787;28;89733;-75
2023/03/31 06:36:08;;;;;;;74.93;50.17;;;15.60;79.00;;;;;;5001476;28;89234;-76
2023/03/31 06:38:37;;;;;;;75.80;49.70;;;15.60;78.80;;;;;;4998047;28;89253;-75
2023/03/31 06:41:03;;;;;;;73.22;50.22;;;15.70;78.90;;;;;;5004543;28;90191;-73
2023/03/31 06:43:29;;;;;;;75.05;50.28;;;15.70;78.70;;;;;;5003062;28;90612;-78
2023/03/31 06:45:55;;;;;;;76.75;50.70;;;15.70;78.50;;;;;;4998470;28;89501;-76
2023/03/31 06:48:24;;;;;;;72.32;49.70;;;15.70;78.30;;;;;;4996820;28;89157;-77
2023/03/31 06:50:52;;;;;;;74.25;50.55;;;15.70;78.30;;;;;;5000549;28;89875;-78
2023/03/31 06:53:18;;;;;;;73.90;50.20;;;15.70;78.10;;;;;;4996899;28;89573;-75
2023/03/31 06:55:43;;;;;;;74.20;50.47;;;15.70;78.20;;;;;;5003883;28;90537;-79
2023/03/31 06:58:10;;;;;;;77.50;50.13;;;15.70;78.30;;;;;;5001656;28;89222;-77
2023/03/31 07:00:36;;;;;;;75.00;50.50;;;15.70;78.10;;;;;;5000300;28;88902;-77
2023/03/31 07:03:03;;;;;;;73.45;50.67;;;15.80;77.80;;;;;;4988393;28;89416;-76
2023/03/31 07:05:30;;;;;;;78.75;50.28;;;15.80;77.80;;;;;;5001917;28;89483;-82
2023/03/31 07:07:57;;;;;;;73.72;50.38;;;15.80;77.50;;;;;;5013227;28;90670;-77
2023/03/31 07:10:25;;;;;;;75.18;50.28;;;15.80;77.40;;;;;;5005446;28;89390;-77
2023/03/31 07:12:50;;;;;;;75.32;50.70;;;15.80;77.30;;;;;;5005277;28;89598;-80
2023/03/31 07:15:16;;;;;;;73.97;50.83;;;16.00;77.20;;;;;;5015425;28;89319;-75
2023/03/31 07:17:42;;;;;;;73.68;50.13;;;16.10;76.40;;;;;;5012834;28;88961;-78
2023/03/31 07:20:13;;;;;;;75.05;50.47;;;16.00;76.20;;;;;;5001809;28;90279;-76
2023/03/31 07:22:40;;;;;;;;;;;16.00;76.10;;;;;;4986726;28;90717;-77
2023/03/31 07:25:07;;;;;;;74.13;50.22;;;16.10;76.50;;;;;;4996214;28;90258;-76
2023/03/31 07:27:33;;;;;;;76.75;50.85;;;16.00;77.10;;;;;;4996144;28;94257;-77
2023/03/31 07:29:58;;;;;;;78.18;51.10;;;16.10;76.30;;;;;;5000579;28;91329;-75
2023/03/31 07:32:24;;;;;;;76.25;51.03;;;16.10;76.30;;;;;;5001705;28;90228;-78
2023/03/31 07:34:50;;;;;;;79.22;51.53;;;16.10;75.80;;;;;;4995286;28;94158;-79
2023/03/31 07:37:16;;;;;;;80.57;51.67;;;16.20;77.10;;;;;;4995149;28;90583;-75
2023/03/31 07:39:41;;;;;;;81.78;51.90;;;16.30;77.00;;;;;;5003191;27;94490;-75
2023/03/31 07:42:07;;;;;;;82.45;51.70;;;16.30;77.10;;;;;;4997264;28;90818;-74
2023/03/31 07:44:36;;;;;;;83.20;52.25;;;16.30;76.50;;;;;;4986602;28;90574;-78
2023/03/31 07:47:04;;;;;;;86.95;52.67;;;16.40;76.40;;;;;;5000287;28;93420;-77
2023/03/31 07:49:32;;;;;;;83.55;52.58;;;16.40;76.60;;;;;;4993176;28;91510;-77
2023/03/31 07:51:57;;;;;;;83.95;52.40;;;16.40;76.40;;;;;;4993173;28;89818;-76
2023/03/31 07:54:23;;;;;;;84.30;52.13;;;16.40;76.00;;;;;;4997011;28;89473;-75
2023/03/31 07:56:49;;;;;;;83.95;53.00;;;16.50;75.50;;;;;;4999173;28;90832;-80
2023/03/31 07:59:15;;;;;;;82.35;53.25;;;16.50;75.60;;;;;;4987725;28;90080;-74
2023/03/31 08:01:41;;;;;;;83.50;52.22;;;16.40;75.90;;;;;;4986312;28;89312;-79
2023/03/31 08:04:06;;;;;;;83.25;52.53;;;16.50;75.50;;;;;;4983185;28;93992;-75
2023/03/31 08:06:32;;;;;;;81.57;52.72;;;16.60;75.00;;;;;;4985400;28;91457;-77
2023/03/31 08:08:58;;;;;;;83.38;52.58;;;16.50;75.30;;;;;;4977041;28;89562;-73
2023/03/31 08:11:24;;;;;;;81.57;51.92;;;16.50;75.20;;;;;;4978410;28;89946;-80
2023/03/31 08:13:50;;;;;;;80.07;52.50;;;16.60;75.00;;;;;;5001723;28;88921;-81
2023/03/31 08:16:16;;;;;;;82.43;52.67;;;16.70;74.40;;;;;;5000311;28;90927;-78
2023/03/31 08:18:42;;;;;;;82.85;52.50;;;16.70;73.80;;;;;;5002773;28;89102;-78
2023/03/31 08:21:11;;;;;;;78.75;52.10;;;16.70;74.40;;;;;;4994137;28;90452;-77
2023/03/31 08:23:36;;;;;;;81.90;52.08;;;16.70;73.70;;;;;;4990041;28;89265;-78
2023/03/31 08:26:18;;;;;;;87.75;52.47;;;16.70;74.00;;;;;;4996812;28;90008;-77
2023/03/31 08:28:45;;;;;;;81.35;52.15;;;16.70;73.90;;;;;;4992870;28;90210;-73
2023/03/31 08:31:11;;;;;;;83.53;52.08;;;16.70;73.80;;;;;;4997075;28;90216;-74
2023/03/31 08:33:37;;;;;;;85.63;52.42;;;16.80;73.90;;;;;;4994415;28;89363;-79
2023/03/31 08:36:07;;;;;;;82.60;51.75;;;16.80;73.40;;;;;;4993863;28;90538;-75
2023/03/31 08:38:37;;;;;;;80.20;52.17;;;16.80;73.50;;;;;;4986831;28;89043;-77
2023/03/31 08:41:06;;;;;;;90.85;53.38;;;16.80;73.50;;;;;;5000713;28;90029;-76
2023/03/31 08:43:38;;;;;;;81.88;52.40;;;16.70;73.60;;;;;;4995277;28;94271;-78
2023/03/31 08:46:04;;;;;;;86.22;52.22;;;16.70;74.30;;;;;;4992161;28;91738;-76
2023/03/31 08:48:44;;;;;;;84.05;52.05;;;16.80;74.60;;;;;;4994404;27;89619;-72
2023/03/31 08:51:23;;;;;;;85.22;52.30;;;16.80;74.50;;;;;;4997810;28;94014;-73
2023/03/31 08:54:02;;;;;;;84.80;52.40;;;16.90;74.20;;;;;;4990733;28;90212;-71
2023/03/31 08:56:32;;;;;;;88.95;52.55;;;16.90;74.30;;;;;;4993610;28;89634;-74
2023/03/31 08:59:01;;;;;;;84.47;52.25;;;16.90;74.30;;;;;;4996299;28;90445;-75
2023/03/31 09:01:44;;;;;;;85.47;52.35;;;16.90;74.60;;;;;;4997226;28;94537;-75
2023/03/31 09:04:13;;;;;;;84.15;52.50;;;16.90;74.40;;;;;;4992646;28;90681;-74
2023/03/31 09:06:48;;;;;;;83.97;52.65;;;16.90;74.40;;;;;;4998084;28;90288;-73
2023/03/31 09:09:47;;;;;;;81.78;51.95;;;16.90;74.00;;;;;;4994223;28;91157;-73
2023/03/31 09:12:19;;;;;;;83.07;52.10;;;17.00;73.60;;;;;;4993677;28;90020;-75
2023/03/31 09:15:24;;;;;;;84.40;52.25;;;16.90;74.10;;;;;;4998914;28;89491;-75
2023/03/31 09:17:51;;;;;;;79.32;52.13;;;16.90;74.40;;;;;;4987902;28;89706;-71
2023/03/31 09:20:29;;;;;;;86.47;52.95;;;16.90;74.70;;;;;;4993034;28;89355;-76
2023/03/31 09:23:15;;;;;;;89.32;52.50;;;16.90;75.00;;;;;;5003010;28;89527;-74
2023/03/31 09:25:43;;;;;;;81.80;52.03;;;16.90;74.60;;;;;;4990281;28;89589;-75
2023/03/31 09:28:21;;;;;;;85.10;52.38;;;17.00;74.40;;;;;;4998342;28;89660;-75
2023/03/31 09:30:51;;;;;;;86.05;52.55;;;17.00;74.30;;;;;;4992668;28;89685;-74
2023/03/31 09:33:30;;;;;;;88.28;52.92;;;17.00;74.00;;;;;;4996881;28;89482;-76
2023/03/31 09:36:00;;;;;;;87.63;52.15;;;17.00;73.80;;;;;;4998029;28;90163;-75
2023/03/31 09:38:30;;;;;;;86.43;52.80;;;17.00;73.70;;;;;;4994645;28;90437;-76
2023/03/31 09:41:01;;;;;;;83.43;52.20;;;17.00;73.70;;;;;;5000633;28;89857;-75
2023/03/31 09:43:29;;;;;;;85.57;52.28;;;17.00;73.80;;;;;;4993444;28;89378;-74
2023/03/31 09:45:56;;;;;;;89.65;52.53;;;17.00;73.90;;;;;;4995983;28;90456;-74
2023/03/31 09:48:27;;;;;;;85.03;52.17;;;17.00;73.80;;;;;;4995281;28;89232;-71
2023/03/31 09:51:13;;;;;;;88.63;52.60;;;17.00;74.00;;;;;;4991700;28;91096;-72
2023/03/31 09:53:50;;;;;;;88.65;52.47;;;17.00;74.10;;;;;;4991739;28;89569;-74
2023/03/31 09:56:33;;;;;;;85.63;52.28;;;17.00;74.00;;;;;;5000371;28;89081;-74
2023/03/31 09:59:02;;;;;;;87.18;52.22;;;17.10;74.00;;;;;;5000331;28;89442;-73
2023/03/31 10:01:28;;;;;;;87.00;52.45;;;17.10;74.00;;;;;;5000935;28;90749;-73
2023/03/31 10:03:55;;;;;;;82.00;52.40;;;17.20;73.80;;;;;;4996306;28;90434;-76
2023/03/31 10:06:23;;;;;;;84.47;52.67;;;17.10;73.60;;;;;;5004704;28;89432;-76
2023/03/31 10:08:55;;;;;;;82.30;52.30;;;17.20;73.50;;;;;;5002559;28;91192;-73
2023/03/31 10:11:21;;;;;;;83.05;52.38;;;17.20;73.40;;;;;;5003985;28;89891;-75
2023/03/31 10:14:12;;;;;;;84.13;52.17;;;17.30;73.60;;;;;;5000249;28;89366;-74
2023/03/31 10:16:49;;;;;;;82.38;52.05;;;17.30;73.40;;;;;;4994346;28;90145;-76
2023/03/31 10:19:24;;;;;;;83.63;52.67;;;17.20;72.80;;;;;;4995852;28;90241;-74
2023/03/31 10:22:21;;;;;;;84.28;52.38;;;17.20;72.80;;;;;;4980375;28;91363;-72
2023/03/31 10:24:49;;;;;;;87.38;52.47;;;17.20;72.70;;;;;;4974024;28;91249;-74
2023/03/31 10:27:31;;;;;;;89.78;52.33;;;17.20;72.50;;;;;;4992924;28;90061;-77
2023/03/31 10:30:00;;;;;;;82.35;52.28;;;17.20;72.80;;;;;;4989934;28;90302;-76
2023/03/31 10:32:30;;;;;;;82.97;52.28;;;17.30;72.90;;;;;;5004442;28;89714;-76
2023/03/31 10:35:11;;;;;;;81.97;52.45;;;17.30;72.60;;;;;;4999426;28;89473;-76
2023/03/31 10:37:36;;;;;;;86.45;52.25;;;17.50;72.50;;;;;;4996851;28;91114;-73
2023/03/31 10:40:20;;;;;;;85.50;52.22;;;17.40;72.80;;;;;;5002127;28;89565;-77
2023/03/31 10:42:49;;;;;;;83.18;52.53;;;17.40;72.90;;;;;;4999519;28;89636;-75
2023/03/31 10:45:38;;;;;;;81.03;51.97;;;17.40;72.60;;;;;;4996353;28;89411;-74
2023/03/31 10:48:05;;;;;;;81.80;52.17;;;17.30;72.90;;;;;;4991255;28;90910;-74
2023/03/31 10:50:34;;;;;;;83.28;51.97;;;17.30;72.80;;;;;;4994824;27;89828;-76
2023/03/31 10:53:01;;;;;;;83.32;51.55;;;17.40;72.80;;;;;;5000853;28;89342;-76
2023/03/31 10:55:35;;;;;;;85.88;52.10;;;17.50;73.10;;;;;;4989868;28;91374;-83
2023/03/31 10:58:25;;;;;;;87.13;52.28;;;17.50;74.20;;;;;;4999546;28;90011;-76
2023/03/31 11:01:10;;;;;;;81.93;51.70;;;17.40;74.20;;;;;;4998645;28;89491;-76
2023/03/31 11:03:38;;;;;;;82.20;52.38;;;17.40;74.50;;;;;;5000033;28;89764;-78
2023/03/31 11:06:28;;;;;;;84.75;52.05;;;17.60;73.40;;;;;;5008603;28;90293;-77
2023/03/31 11:09:13;;;;;;;82.35;52.33;;;17.60;72.90;;;;;;5007078;28;89879;-75
2023/03/31 11:11:49;;;;;;;85.13;52.05;;;17.50;72.60;;;;;;5004451;28;89457;-79
2023/03/31 11:14:21;;;;;;;80.60;51.88;;;17.50;72.50;;;;;;5006968;28;89710;-78
2023/03/31 11:16:55;;;;;;;82.72;52.03;;;17.50;72.80;;;;;;4998489;28;90363;-76
2023/03/31 11:19:29;;;;;;;85.35;51.80;;;17.60;72.30;;;;;;4995951;28;89592;-72
2023/03/31 11:22:13;;;;;;;83.50;52.05;;;17.70;72.80;;;;;;4999684;28;90249;-73
2023/03/31 11:24:54;;;;;;;93.32;52.28;;;17.90;72.90;;;;;;4985338;22;90604;-69
2023/03/31 11:27:35;;;;;;;89.03;52.10;;;17.90;73.50;;;;;;4960097;28;90144;-68
2023/03/31 11:30:19;;;;;;;84.15;52.53;;;17.80;74.20;;;;;;4964746;28;89419;-66
2023/03/31 11:33:03;;;;;;;84.13;51.95;;;17.80;73.80;;;;;;4962813;28;90018;-61
2023/03/31 11:35:59;;;;;;;89.55;52.15;;;17.80;79.10;;;;;;4961832;28;89763;-65
2023/03/31 11:38:44;;;;;;;81.20;51.85;;;17.80;75.70;;;;;;4963214;28;89865;-61
2023/03/31 11:41:16;;;;;;;81.75;51.92;;;17.90;74.70;;;;;;4959366;28;88770;-60
2023/03/31 11:43:47;;;;;;;89.00;52.63;;;17.90;74.30;;;;;;4961142;28;90118;-66
2023/03/31 11:46:21;;;;;;;83.63;51.75;;;17.90;73.70;;;;;;4962157;28;89570;-75
2023/03/31 11:49:03;;;;;;;81.38;51.47;;;17.90;74.10;;;;;;4958990;28;90922;-54
2023/03/31 11:51:52;;;;;;;85.80;51.55;;;17.90;73.50;;;;;;4964037;28;89662;-61
2023/03/31 11:54:31;;;;;;;85.50;51.80;;;17.90;73.50;;;;;;4959159;28;91185;-59
2023/03/31 11:57:01;;;;;;;83.05;51.90;;;17.80;72.90;;;;;;4963167;28;89416;-55
2023/03/31 11:59:30;;;;;;;86.93;51.75;;;17.80;73.10;;;;;;4965095;28;89456;-72
2023/03/31 12:02:20;;;;;;;80.88;51.55;;;17.70;73.00;;;;;;4946923;28;89796;-62
2023/03/31 12:04:50;;;;;;;78.70;51.53;;;17.70;73.40;;;;;;4942257;28;89702;-66
2023/03/31 12:07:35;;;;;;;81.47;51.80;;;17.80;72.80;;;;;;4944289;28;91500;-61
2023/03/31 12:10:21;;;;;;;83.85;51.83;;;17.70;73.00;;;;;;4941084;28;89823;-60
2023/03/31 12:12:56;;;;;;;79.00;51.20;;;17.60;73.10;;;;;;4939935;28;89342;-62
2023/03/31 12:15:32;;;;;;;82.90;51.83;;;17.60;73.20;;;;;;4937082;28;90664;-64
2023/03/31 12:18:24;;;;;;;80.75;51.75;;;17.60;73.10;;;;;;4941006;28;89606;-54
2023/03/31 12:20:56;;;;;;;76.72;50.85;;;17.60;72.60;;;;;;4943399;28;89975;-65
2023/03/31 12:23:26;;;;;;;78.45;51.28;;;17.60;72.40;;;;;;4942583;28;89430;-66
2023/03/31 12:26:17;;;;;;;77.13;51.20;;;17.60;72.40;;;;;;4943659;28;90742;-70
2023/03/31 12:28:44;;;;;;;75.50;50.85;;;17.70;72.30;;;;;;4937152;28;89405;-64
2023/03/31 12:31:19;;;;;;;76.68;51.10;;;17.70;72.40;;;;;;4938950;28;89685;-66
2023/03/31 12:34:01;;;;;;;75.45;50.88;;;17.80;72.70;;;;;;4945853;28;89129;-71
2023/03/31 12:36:45;;;;;;;81.65;51.45;;;17.80;76.80;;;;;;4938288;28;90170;-67
2023/03/31 12:39:31;;;;;;;76.05;50.85;;;17.70;81.10;;;;;;4945450;28;90416;-60
2023/03/31 12:42:03;;;;;;;78.63;51.05;;;17.60;81.50;;;;;;4942565;28;90678;-66
2023/03/31 12:44:28;;;;;;;;;;;17.60;82.40;;;;;;4945748;28;89788;-63
2023/03/31 12:47:03;;;;;;;76.00;51.00;;;17.60;80.80;;;;;;4942476;28;94640;-71
2023/03/31 12:49:34;;;;;;;75.88;50.60;;;17.60;81.00;;;;;;4945330;28;89414;-68
2023/03/31 12:52:14;;;;;;;75.57;50.90;;;17.60;79.80;;;;;;4943766;28;89750;-66